sensor_id;sensor_type;location;lat;lon;timestamp;pressure;altitude;pressure_sealevel;temperature;humidity
75656;BME280;64252;51.094;13.714;2023-06-14T00:01:53;100379.00;;;12.19;77.65
75656;BME280;64252;51.094;13.714;2023-06-14T00:04:18;100372.09;;;12.13;77.48
75656;BME280;64252;51.094;13.714;2023-06-14T00:06:46;100380.53;;;12.02;78.42
75656;BME280;64252;51.094;13.714;2023-06-14T00:09:12;100367.97;;;11.89;79.00
75656;BME280;64252;51.094;13.714;2023-06-14T00:11:43;100382.06;;;11.75;79.42
75656;BME280;64252;51.094;13.714;2023-06-14T00:14:09;100378.75;;;11.66;79.62
75656;BME280;64252;51.094;13.714;2023-06-14T00:16:35;100374.78;;;11.74;79.56
75656;BME280;64252;51.094;13.714;2023-06-14T00:19:02;100376.31;;;11.68;79.49
75656;BME280;64252;51.094;13.714;2023-06-14T00:21:31;100369.84;;;11.64;79.56
75656;BME280;64252;51.094;13.714;2023-06-14T00:23:58;100368.19;;;11.59;80.35
75656;BME280;64252;51.094;13.714;2023-06-14T00:26:23;100373.84;;;11.59;80.71
75656;BME280;64252;51.094;13.714;2023-06-14T00:28:52;100367.00;;;11.57;80.35
75656;BME280;64252;51.094;13.714;2023-06-14T00:31:18;100367.38;;;11.59;80.35
75656;BME280;64252;51.094;13.714;2023-06-14T00:33:44;100369.81;;;11.53;80.68
75656;BME280;64252;51.094;13.714;2023-06-14T00:36:11;100369.00;;;11.53;81.74
75656;BME280;64252;51.094;13.714;2023-06-14T00:38:38;100363.69;;;11.44;81.96
75656;BME280;64252;51.094;13.714;2023-06-14T00:41:04;100370.50;;;11.36;81.75
75656;BME280;64252;51.094;13.714;2023-06-14T00:43:29;100376.56;;;11.34;82.17
75656;BME280;64252;51.094;13.714;2023-06-14T00:45:58;100359.13;;;11.25;83.55
75656;BME280;64252;51.094;13.714;2023-06-14T00:48:24;100371.22;;;11.22;82.84
75656;BME280;64252;51.094;13.714;2023-06-14T00:50:50;100368.00;;;11.20;83.63
75656;BME280;64252;51.094;13.714;2023-06-14T00:53:18;100364.75;;;11.18;83.74
75656;BME280;64252;51.094;13.714;2023-06-14T00:55:44;100366.75;;;11.18;83.20
75656;BME280;64252;51.094;13.714;2023-06-14T00:58:10;100368.31;;;11.12;84.61
75656;BME280;64252;51.094;13.714;2023-06-14T01:00:36;100365.47;;;11.08;84.26
75656;BME280;64252;51.094;13.714;2023-06-14T01:03:02;100362.22;;;11.02;85.38
75656;BME280;64252;51.094;13.714;2023-06-14T01:05:29;100361.28;;;10.88;84.27
75656;BME280;64252;51.094;13.714;2023-06-14T01:11:10;100358.06;;;10.89;86.23
75656;BME280;64252;51.094;13.714;2023-06-14T01:13:39;100358.78;;;10.76;85.59
75656;BME280;64252;51.094;13.714;2023-06-14T01:16:07;100363.69;;;10.82;85.50
75656;BME280;64252;51.094;13.714;2023-06-14T01:18:33;100356.75;;;10.73;86.04
75656;BME280;64252;51.094;13.714;2023-06-14T01:21:01;100349.44;;;10.68;86.25
75656;BME280;64252;51.094;13.714;2023-06-14T01:23:31;100356.31;;;10.71;86.70
75656;BME280;64252;51.094;13.714;2023-06-14T01:26:00;100360.75;;;10.68;86.77
75656;BME280;64252;51.094;13.714;2023-06-14T01:28:31;100354.31;;;10.71;86.81
75656;BME280;64252;51.094;13.714;2023-06-14T01:31:00;100351.47;;;10.71;87.28
75656;BME280;64252;51.094;13.714;2023-06-14T01:33:30;100353.88;;;10.69;86.80
75656;BME280;64252;51.094;13.714;2023-06-14T01:35:57;100351.06;;;10.69;87.17
75656;BME280;64252;51.094;13.714;2023-06-14T01:38:25;100358.69;;;10.65;87.77
75656;BME280;64252;51.094;13.714;2023-06-14T01:40:53;100350.63;;;10.64;87.55
75656;BME280;64252;51.094;13.714;2023-06-14T01:43:20;100354.66;;;10.63;87.20
75656;BME280;64252;51.094;13.714;2023-06-14T01:45:48;100354.22;;;10.61;87.01
75656;BME280;64252;51.094;13.714;2023-06-14T01:48:14;100346.56;;;10.61;87.96
75656;BME280;64252;51.094;13.714;2023-06-14T01:50:40;100353.75;;;10.55;87.62
75656;BME280;64252;51.094;13.714;2023-06-14T01:53:09;100352.88;;;10.44;87.99
75656;BME280;64252;51.094;13.714;2023-06-14T01:55:36;100342.31;;;10.37;88.23
75656;BME280;64252;51.094;13.714;2023-06-14T01:58:05;100352.78;;;10.37;89.45
75656;BME280;64252;51.094;13.714;2023-06-14T02:00:31;100357.63;;;10.36;89.29
75656;BME280;64252;51.094;13.714;2023-06-14T02:02:57;100360.03;;;10.34;90.41
75656;BME280;64252;51.094;13.714;2023-06-14T02:05:26;100367.31;;;10.35;89.46
75656;BME280;64252;51.094;13.714;2023-06-14T02:07:52;100366.09;;;10.36;89.72
75656;BME280;64252;51.094;13.714;2023-06-14T02:10:22;100374.00;;;10.20;90.21
75656;BME280;64252;51.094;13.714;2023-06-14T02:12:47;100378.78;;;10.16;90.30
75656;BME280;64252;51.094;13.714;2023-06-14T02:15:13;100375.97;;;10.16;90.39
75656;BME280;64252;51.094;13.714;2023-06-14T02:17:45;100374.31;;;10.15;90.06
75656;BME280;64252;51.094;13.714;2023-06-14T02:20:12;100377.44;;;10.06;90.93
75656;BME280;64252;51.094;13.714;2023-06-14T02:22:38;100375.00;;;10.05;90.55
75656;BME280;64252;51.094;13.714;2023-06-14T02:25:07;100374.13;;;9.97;91.10
75656;BME280;64252;51.094;13.714;2023-06-14T02:27:33;100372.06;;;9.94;91.32
75656;BME280;64252;51.094;13.714;2023-06-14T02:29:59;100373.31;;;9.97;90.84
75656;BME280;64252;51.094;13.714;2023-06-14T02:32:27;100372.47;;;9.93;91.31
75656;BME280;64252;51.094;13.714;2023-06-14T02:34:53;100374.94;;;9.98;91.23
75656;BME280;64252;51.094;13.714;2023-06-14T02:37:19;100382.09;;;9.92;91.20
75656;BME280;64252;51.094;13.714;2023-06-14T02:39:45;100378.84;;;9.90;91.68
75656;BME280;64252;51.094;13.714;2023-06-14T02:42:11;100375.63;;;9.88;92.24
75656;BME280;64252;51.094;13.714;2023-06-14T02:44:38;100373.94;;;9.83;92.38
75656;BME280;64252;51.094;13.714;2023-06-14T02:47:04;100376.72;;;9.80;92.54
75656;BME280;64252;51.094;13.714;2023-06-14T02:49:30;100390.03;;;9.79;91.96
75656;BME280;64252;51.094;13.714;2023-06-14T02:51:56;100391.69;;;9.84;92.39
75656;BME280;64252;51.094;13.714;2023-06-14T02:54:21;100384.38;;;9.79;91.83
75656;BME280;64252;51.094;13.714;2023-06-14T02:56:48;100380.25;;;9.73;93.16
75656;BME280;64252;51.094;13.714;2023-06-14T02:59:13;100385.81;;;9.66;92.54
75656;BME280;64252;51.094;13.714;2023-06-14T03:01:40;100381.41;;;9.68;93.40
75656;BME280;64252;51.094;13.714;2023-06-14T03:04:09;100384.19;;;9.65;92.99
75656;BME280;64252;51.094;13.714;2023-06-14T03:06:38;100384.31;;;9.76;93.50
75656;BME280;64252;51.094;13.714;2023-06-14T03:09:05;100380.16;;;9.66;94.05
75656;BME280;64252;51.094;13.714;2023-06-14T03:11:33;100387.88;;;9.69;92.79
75656;BME280;64252;51.094;13.714;2023-06-14T03:14:00;100385.91;;;9.73;93.10
75656;BME280;64252;51.094;13.714;2023-06-14T03:16:26;100395.69;;;9.83;93.50
75656;BME280;64252;51.094;13.714;2023-06-14T03:18:55;100386.03;;;9.84;93.55
75656;BME280;64252;51.094;13.714;2023-06-14T03:21:23;100394.06;;;9.82;92.86
75656;BME280;64252;51.094;13.714;2023-06-14T03:23:53;100390.03;;;9.79;94.03
75656;BME280;64252;51.094;13.714;2023-06-14T03:26:19;100392.03;;;9.79;94.81
75656;BME280;64252;51.094;13.714;2023-06-14T03:28:46;100389.63;;;9.81;93.49
75656;BME280;64252;51.094;13.714;2023-06-14T03:31:13;100393.97;;;9.75;94.13
75656;BME280;64252;51.094;13.714;2023-06-14T03:33:39;100397.31;;;9.84;93.82
75656;BME280;64252;51.094;13.714;2023-06-14T03:36:06;100394.56;;;9.91;92.99
75656;BME280;64252;51.094;13.714;2023-06-14T03:38:35;100403.41;;;9.89;94.04
75656;BME280;64252;51.094;13.714;2023-06-14T03:41:04;100403.84;;;9.91;93.19
75656;BME280;64252;51.094;13.714;2023-06-14T03:43:31;100401.88;;;9.95;93.07
75656;BME280;64252;51.094;13.714;2023-06-14T03:45:57;100412.00;;;10.00;93.72
75656;BME280;64252;51.094;13.714;2023-06-14T03:48:24;100411.22;;;10.03;93.34
75656;BME280;64252;51.094;13.714;2023-06-14T03:50:50;100425.75;;;10.01;92.37
75656;BME280;64252;51.094;13.714;2023-06-14T03:53:16;100428.59;;;10.05;92.87
75656;BME280;64252;51.094;13.714;2023-06-14T03:55:46;100430.75;;;10.15;93.10
75656;BME280;64252;51.094;13.714;2023-06-14T03:58:16;100436.50;;;10.22;92.87
75656;BME280;64252;51.094;13.714;2023-06-14T04:00:42;100425.28;;;10.29;92.54
75656;BME280;64252;51.094;13.714;2023-06-14T04:03:08;100437.44;;;10.33;91.87
75656;BME280;64252;51.094;13.714;2023-06-14T04:05:37;100437.53;;;10.40;92.03
75656;BME280;64252;51.094;13.714;2023-06-14T04:08:06;100457.34;;;10.47;91.14
75656;BME280;64252;51.094;13.714;2023-06-14T04:10:34;100448.97;;;10.54;91.37
75656;BME280;64252;51.094;13.714;2023-06-14T04:13:01;100455.50;;;10.66;90.47
75656;BME280;64252;51.094;13.714;2023-06-14T04:15:26;100452.00;;;10.76;89.49
75656;BME280;64252;51.094;13.714;2023-06-14T04:17:56;100450.84;;;10.84;89.12
75656;BME280;64252;51.094;13.714;2023-06-14T04:20:23;100450.13;;;10.94;89.97
75656;BME280;64252;51.094;13.714;2023-06-14T04:22:52;100446.97;;;11.02;88.41
75656;BME280;64252;51.094;13.714;2023-06-14T04:25:18;100438.56;;;11.06;88.98
75656;BME280;64252;51.094;13.714;2023-06-14T04:27:44;100438.59;;;11.13;88.15
75656;BME280;64252;51.094;13.714;2023-06-14T04:30:10;100437.06;;;11.26;87.30
75656;BME280;64252;51.094;13.714;2023-06-14T04:32:41;100441.16;;;11.32;87.26
75656;BME280;64252;51.094;13.714;2023-06-14T04:35:10;100445.63;;;11.33;88.22
75656;BME280;64252;51.094;13.714;2023-06-14T04:37:38;100453.25;;;11.29;87.78
75656;BME280;64252;51.094;13.714;2023-06-14T04:40:07;100451.28;;;11.37;86.62
75656;BME280;64252;51.094;13.714;2023-06-14T04:42:35;100454.56;;;11.42;86.54
75656;BME280;64252;51.094;13.714;2023-06-14T04:45:03;100465.16;;;11.56;85.79
75656;BME280;64252;51.094;13.714;2023-06-14T04:47:29;100463.72;;;11.80;85.02
75656;BME280;64252;51.094;13.714;2023-06-14T04:49:57;100470.28;;;11.98;84.31
75656;BME280;64252;51.094;13.714;2023-06-14T04:52:23;100472.34;;;12.08;84.94
75656;BME280;64252;51.094;13.714;2023-06-14T04:54:53;100468.75;;;12.18;83.27
75656;BME280;64252;51.094;13.714;2023-06-14T04:57:21;100458.31;;;12.37;82.63
75656;BME280;64252;51.094;13.714;2023-06-14T04:59:49;100470.47;;;12.48;82.26
75656;BME280;64252;51.094;13.714;2023-06-14T05:02:24;100473.78;;;12.78;82.00
75656;BME280;64252;51.094;13.714;2023-06-14T05:04:51;100471.28;;;14.04;76.02
75656;BME280;64252;51.094;13.714;2023-06-14T05:07:16;100464.41;;;16.49;67.58
75656;BME280;64252;51.094;13.714;2023-06-14T05:09:43;100470.16;;;18.38;59.51
75656;BME280;64252;51.094;13.714;2023-06-14T05:12:10;100479.34;;;19.38;55.39
75656;BME280;64252;51.094;13.714;2023-06-14T05:14:36;100469.97;;;18.69;56.73
75656;BME280;64252;51.094;13.714;2023-06-14T05:17:03;100472.03;;;20.43;52.89
75656;BME280;64252;51.094;13.714;2023-06-14T05:19:28;100485.59;;;21.22;50.89
75656;BME280;64252;51.094;13.714;2023-06-14T05:21:54;100475.69;;;21.48;50.18
75656;BME280;64252;51.094;13.714;2023-06-14T05:24:20;100480.03;;;21.65;48.93
75656;BME280;64252;51.094;13.714;2023-06-14T05:26:46;100488.66;;;21.02;50.14
75656;BME280;64252;51.094;13.714;2023-06-14T05:29:14;100481.66;;;19.10;54.53
75656;BME280;64252;51.094;13.714;2023-06-14T05:31:40;100485.88;;;17.41;59.53
75656;BME280;64252;51.094;13.714;2023-06-14T05:34:05;100491.22;;;16.21;63.85
75656;BME280;64252;51.094;13.714;2023-06-14T05:36:31;100488.84;;;15.34;68.01
75656;BME280;64252;51.094;13.714;2023-06-14T05:38:57;100484.78;;;14.76;69.75
75656;BME280;64252;51.094;13.714;2023-06-14T05:41:28;100484.81;;;14.69;70.94
75656;BME280;64252;51.094;13.714;2023-06-14T05:43:55;100497.97;;;14.38;72.94
75656;BME280;64252;51.094;13.714;2023-06-14T05:46:23;100490.16;;;14.64;71.85
75656;BME280;64252;51.094;13.714;2023-06-14T05:48:54;100496.63;;;14.68;71.71
75656;BME280;64252;51.094;13.714;2023-06-14T05:51:20;100487.91;;;14.96;71.06
75656;BME280;64252;51.094;13.714;2023-06-14T05:53:46;100492.97;;;16.15;67.07
75656;BME280;64252;51.094;13.714;2023-06-14T05:56:13;100483.63;;;17.52;63.04
75656;BME280;64252;51.094;13.714;2023-06-14T05:58:39;100479.00;;;19.19;57.37
75656;BME280;64252;51.094;13.714;2023-06-14T06:01:06;100485.16;;;20.28;54.63
75656;BME280;64252;51.094;13.714;2023-06-14T06:03:31;100480.66;;;21.35;51.24
75656;BME280;64252;51.094;13.714;2023-06-14T06:05:58;100490.63;;;21.43;50.29
75656;BME280;64252;51.094;13.714;2023-06-14T06:08:24;100490.06;;;22.29;49.20
75656;BME280;64252;51.094;13.714;2023-06-14T06:10:49;100486.88;;;22.49;47.35
75656;BME280;64252;51.094;13.714;2023-06-14T06:13:16;100504.13;;;20.09;51.55
75656;BME280;64252;51.094;13.714;2023-06-14T06:15:42;100502.19;;;23.51;46.12
75656;BME280;64252;51.094;13.714;2023-06-14T06:18:08;100496.03;;;24.08;44.69
75656;BME280;64252;51.094;13.714;2023-06-14T06:20:34;100502.38;;;23.26;45.96
75656;BME280;64252;51.094;13.714;2023-06-14T06:23:01;100504.53;;;24.93;43.78
75656;BME280;64252;51.094;13.714;2023-06-14T06:25:27;100508.06;;;24.70;42.84
75656;BME280;64252;51.094;13.714;2023-06-14T06:27:54;100507.13;;;24.64;42.87
75656;BME280;64252;51.094;13.714;2023-06-14T06:30:23;100509.44;;;26.33;40.74
75656;BME280;64252;51.094;13.714;2023-06-14T06:32:48;100499.78;;;25.89;40.15
75656;BME280;64252;51.094;13.714;2023-06-14T06:35:14;100505.53;;;26.22;39.60
75656;BME280;64252;51.094;13.714;2023-06-14T06:37:43;100514.34;;;25.28;41.85
75656;BME280;64252;51.094;13.714;2023-06-14T06:40:09;100513.19;;;26.01;40.19
75656;BME280;64252;51.094;13.714;2023-06-14T06:42:35;100519.28;;;24.77;42.95
75656;BME280;64252;51.094;13.714;2023-06-14T06:45:05;100503.00;;;26.68;39.40
75656;BME280;64252;51.094;13.714;2023-06-14T06:47:31;100503.75;;;27.71;37.96
75656;BME280;64252;51.094;13.714;2023-06-14T06:49:57;100499.38;;;28.36;36.53
75656;BME280;64252;51.094;13.714;2023-06-14T06:52:22;100508.16;;;27.17;37.54
75656;BME280;64252;51.094;13.714;2023-06-14T06:54:48;100506.84;;;28.02;38.68
75656;BME280;64252;51.094;13.714;2023-06-14T06:57:15;100505.97;;;27.12;38.64
75656;BME280;64252;51.094;13.714;2023-06-14T06:59:41;100507.19;;;26.67;38.98
75656;BME280;64252;51.094;13.714;2023-06-14T07:02:07;100509.78;;;25.55;40.43
75656;BME280;64252;51.094;13.714;2023-06-14T07:04:33;100509.81;;;25.46;41.74
75656;BME280;64252;51.094;13.714;2023-06-14T07:06:58;100503.59;;;25.95;38.54
75656;BME280;64252;51.094;13.714;2023-06-14T07:09:24;100499.88;;;26.18;39.04
75656;BME280;64252;51.094;13.714;2023-06-14T07:11:50;100502.84;;;26.09;40.36
75656;BME280;64252;51.094;13.714;2023-06-14T07:14:19;100504.41;;;26.57;40.46
75656;BME280;64252;51.094;13.714;2023-06-14T07:16:44;100505.47;;;27.77;36.56
75656;BME280;64252;51.094;13.714;2023-06-14T07:19:11;100509.69;;;27.47;37.18
75656;BME280;64252;51.094;13.714;2023-06-14T07:21:37;100505.72;;;25.19;38.13
75656;BME280;64252;51.094;13.714;2023-06-14T07:24:05;100496.78;;;26.45;37.49
75656;BME280;64252;51.094;13.714;2023-06-14T07:26:32;100503.19;;;26.49;36.26
75656;BME280;64252;51.094;13.714;2023-06-14T07:28:57;100513.81;;;26.05;36.10
75656;BME280;64252;51.094;13.714;2023-06-14T07:31:23;100511.78;;;25.30;38.64
75656;BME280;64252;51.094;13.714;2023-06-14T07:33:50;100503.41;;;25.98;36.86
75656;BME280;64252;51.094;13.714;2023-06-14T07:36:16;100501.53;;;26.72;36.81
75656;BME280;64252;51.094;13.714;2023-06-14T07:38:43;100507.53;;;26.83;35.88
75656;BME280;64252;51.094;13.714;2023-06-14T07:41:09;100507.06;;;27.99;35.40
75656;BME280;64252;51.094;13.714;2023-06-14T07:43:35;100513.06;;;27.11;33.40
75656;BME280;64252;51.094;13.714;2023-06-14T07:46:01;100507.66;;;27.03;34.16
75656;BME280;64252;51.094;13.714;2023-06-14T07:48:27;100510.00;;;26.76;36.18
75656;BME280;64252;51.094;13.714;2023-06-14T07:50:53;100512.13;;;28.64;33.35
75656;BME280;64252;51.094;13.714;2023-06-14T07:53:18;100512.16;;;26.90;35.63
75656;BME280;64252;51.094;13.714;2023-06-14T07:55:44;100513.91;;;26.73;36.62
75656;BME280;64252;51.094;13.714;2023-06-14T07:58:10;100521.44;;;27.53;34.11
75656;BME280;64252;51.094;13.714;2023-06-14T08:00:36;100533.13;;;24.18;36.76
75656;BME280;64252;51.094;13.714;2023-06-14T08:03:02;100528.16;;;24.19;39.76
75656;BME280;64252;51.094;13.714;2023-06-14T08:05:28;100527.84;;;22.97;40.39
75656;BME280;64252;51.094;13.714;2023-06-14T08:07:54;100526.22;;;22.52;41.45
75656;BME280;64252;51.094;13.714;2023-06-14T08:10:21;100530.66;;;21.37;43.29
75656;BME280;64252;51.094;13.714;2023-06-14T08:12:47;100532.03;;;21.33;43.35
75656;BME280;64252;51.094;13.714;2023-06-14T08:15:16;100539.78;;;21.96;43.13
75656;BME280;64252;51.094;13.714;2023-06-14T08:17:45;100528.13;;;21.27;43.61
75656;BME280;64252;51.094;13.714;2023-06-14T08:20:12;100534.94;;;21.93;42.28
75656;BME280;64252;51.094;13.714;2023-06-14T08:22:37;100529.78;;;21.87;42.71
75656;BME280;64252;51.094;13.714;2023-06-14T08:25:05;100529.69;;;22.47;41.57
75656;BME280;64252;51.094;13.714;2023-06-14T08:27:32;100525.44;;;22.95;40.76
75656;BME280;64252;51.094;13.714;2023-06-14T08:29:58;100534.53;;;23.55;39.12
75656;BME280;64252;51.094;13.714;2023-06-14T08:32:23;100532.84;;;23.36;38.89
75656;BME280;64252;51.094;13.714;2023-06-14T08:34:49;100532.03;;;23.67;38.90
75656;BME280;64252;51.094;13.714;2023-06-14T08:37:14;100534.44;;;23.37;40.05
75656;BME280;64252;51.094;13.714;2023-06-14T08:39:40;100527.94;;;24.04;39.42
75656;BME280;64252;51.094;13.714;2023-06-14T08:42:07;100530.22;;;23.60;39.56
75656;BME280;64252;51.094;13.714;2023-06-14T08:44:34;100535.81;;;23.24;39.63
75656;BME280;64252;51.094;13.714;2023-06-14T08:47:00;100535.41;;;23.34;39.84
75656;BME280;64252;51.094;13.714;2023-06-14T08:49:26;100529.03;;;22.21;41.81
75656;BME280;64252;51.094;13.714;2023-06-14T08:51:59;100526.50;;;22.67;41.31
75656;BME280;64252;51.094;13.714;2023-06-14T08:54:28;100536.59;;;23.15;40.57
75656;BME280;64252;51.094;13.714;2023-06-14T08:56:59;100523.53;;;23.32;40.03
75656;BME280;64252;51.094;13.714;2023-06-14T08:59:27;100524.16;;;23.27;40.38
75656;BME280;64252;51.094;13.714;2023-06-14T09:01:54;100526.72;;;23.25;39.98
75656;BME280;64252;51.094;13.714;2023-06-14T09:04:23;100538.63;;;21.80;42.23
75656;BME280;64252;51.094;13.714;2023-06-14T09:06:55;100531.25;;;23.35;40.41
75656;BME280;64252;51.094;13.714;2023-06-14T09:09:21;100531.22;;;24.42;38.20
75656;BME280;64252;51.094;13.714;2023-06-14T09:11:50;100544.84;;;24.33;37.63
75656;BME280;64252;51.094;13.714;2023-06-14T09:14:16;100555.47;;;23.78;38.56
75656;BME280;64252;51.094;13.714;2023-06-14T09:16:41;100550.66;;;23.44;38.92
75656;BME280;64252;51.094;13.714;2023-06-14T09:19:07;100529.31;;;23.01;41.48
75656;BME280;64252;51.094;13.714;2023-06-14T09:21:35;100532.66;;;23.00;41.01
75656;BME280;64252;51.094;13.714;2023-06-14T09:24:02;100538.41;;;22.56;41.62
75656;BME280;64252;51.094;13.714;2023-06-14T09:26:29;100529.97;;;22.84;40.73
75656;BME280;64252;51.094;13.714;2023-06-14T09:28:55;100530.13;;;22.80;41.50
75656;BME280;64252;51.094;13.714;2023-06-14T09:31:21;100535.75;;;22.84;42.11
75656;BME280;64252;51.094;13.714;2023-06-14T09:33:51;100544.28;;;21.97;43.31
75656;BME280;64252;51.094;13.714;2023-06-14T09:36:24;100539.06;;;22.60;43.05
75656;BME280;64252;51.094;13.714;2023-06-14T09:38:56;100535.06;;;23.32;42.01
75656;BME280;64252;51.094;13.714;2023-06-14T09:41:32;100541.31;;;23.31;42.35
75656;BME280;64252;51.094;13.714;2023-06-14T09:44:05;100535.16;;;23.50;41.73
75656;BME280;64252;51.094;13.714;2023-06-14T09:46:32;100533.59;;;22.97;41.23
75656;BME280;64252;51.094;13.714;2023-06-14T09:48:59;100529.88;;;23.49;40.24
75656;BME280;64252;51.094;13.714;2023-06-14T09:51:25;100530.72;;;22.97;40.18
75656;BME280;64252;51.094;13.714;2023-06-14T09:53:52;100530.47;;;23.13;40.99
75656;BME280;64252;51.094;13.714;2023-06-14T09:56:28;100526.94;;;23.09;40.50
75656;BME280;64252;51.094;13.714;2023-06-14T09:58:58;100524.91;;;22.88;40.19
75656;BME280;64252;51.094;13.714;2023-06-14T10:01:30;100530.09;;;22.37;41.13
75656;BME280;64252;51.094;13.714;2023-06-14T10:06:26;100533.06;;;22.11;42.98
75656;BME280;64252;51.094;13.714;2023-06-14T10:08:56;100537.72;;;21.83;43.46
75656;BME280;64252;51.094;13.714;2023-06-14T10:11:24;100536.38;;;21.50;43.19
75656;BME280;64252;51.094;13.714;2023-06-14T10:13:50;100528.66;;;21.47;44.73
75656;BME280;64252;51.094;13.714;2023-06-14T10:16:21;100520.19;;;21.31;44.95
75656;BME280;64252;51.094;13.714;2023-06-14T10:21:45;100525.13;;;21.18;45.63
75656;BME280;64252;51.094;13.714;2023-06-14T10:24:13;100519.53;;;21.86;45.97
75656;BME280;64252;51.094;13.714;2023-06-14T10:26:54;100505.94;;;22.00;44.59
75656;BME280;64252;51.094;13.714;2023-06-14T10:29:20;100518.41;;;21.71;44.69
75656;BME280;64252;51.094;13.714;2023-06-14T10:31:47;100515.94;;;22.08;44.55
75656;BME280;64252;51.094;13.714;2023-06-14T10:34:24;100515.25;;;22.04;43.52
75656;BME280;64252;51.094;13.714;2023-06-14T10:37:03;100504.34;;;22.55;43.01
75656;BME280;64252;51.094;13.714;2023-06-14T10:39:32;100515.34;;;22.13;43.04
75656;BME280;64252;51.094;13.714;2023-06-14T10:42:01;100509.22;;;22.45;42.39
75656;BME280;64252;51.094;13.714;2023-06-14T10:46:58;100496.22;;;22.62;42.35
75656;BME280;64252;51.094;13.714;2023-06-14T10:52:08;100500.53;;;22.80;43.07
75656;BME280;64252;51.094;13.714;2023-06-14T10:54:37;100504.00;;;22.31;43.47
75656;BME280;64252;51.094;13.714;2023-06-14T10:57:06;100503.22;;;21.71;44.46
75656;BME280;64252;51.094;13.714;2023-06-14T10:59:33;100503.75;;;21.19;45.63
75656;BME280;64252;51.094;13.714;2023-06-14T11:02:35;100505.06;;;20.76;46.84
75656;BME280;64252;51.094;13.714;2023-06-14T11:05:14;100510.06;;;20.72;47.16
75656;BME280;64252;51.094;13.714;2023-06-14T11:08:10;100496.28;;;21.21;46.32
75656;BME280;64252;51.094;13.714;2023-06-14T11:10:41;100490.19;;;21.44;46.59
75656;BME280;64252;51.094;13.714;2023-06-14T11:13:09;100489.13;;;22.11;45.11
75656;BME280;64252;51.094;13.714;2023-06-14T11:15:36;100489.47;;;22.35;44.94
75656;BME280;64252;51.094;13.714;2023-06-14T11:18:07;100490.72;;;22.12;44.84
75656;BME280;64252;51.094;13.714;2023-06-14T11:20:36;100480.16;;;22.09;45.34
75656;BME280;64252;51.094;13.714;2023-06-14T11:23:03;100483.00;;;21.74;46.32
75656;BME280;64252;51.094;13.714;2023-06-14T11:25:29;100500.28;;;21.49;47.21
75656;BME280;64252;51.094;13.714;2023-06-14T11:27:58;100486.97;;;21.30;47.95
75656;BME280;64252;51.094;13.714;2023-06-14T11:30:26;100494.84;;;20.88;48.27
75656;BME280;64252;51.094;13.714;2023-06-14T11:32:54;100499.13;;;21.34;48.02
75656;BME280;64252;51.094;13.714;2023-06-14T11:35:24;100490.53;;;21.47;47.54
75656;BME280;64252;51.094;13.714;2023-06-14T11:38:01;100504.97;;;21.68;48.47
75656;BME280;64252;51.094;13.714;2023-06-14T11:40:28;100494.25;;;21.81;46.99
75656;BME280;64252;51.094;13.714;2023-06-14T11:43:01;100487.13;;;21.73;47.29
75656;BME280;64252;51.094;13.714;2023-06-14T11:45:29;100495.47;;;22.27;47.36
75656;BME280;64252;51.094;13.714;2023-06-14T11:47:56;100492.22;;;22.16;47.10
75656;BME280;64252;51.094;13.714;2023-06-14T11:50:22;100491.81;;;21.93;46.92
75656;BME280;64252;51.094;13.714;2023-06-14T11:52:58;100500.72;;;22.20;47.33
75656;BME280;64252;51.094;13.714;2023-06-14T11:55:38;100486.19;;;21.89;47.59
75656;BME280;64252;51.094;13.714;2023-06-14T11:58:06;100495.59;;;21.89;47.53
75656;BME280;64252;51.094;13.714;2023-06-14T12:00:32;100490.00;;;21.73;47.34
75656;BME280;64252;51.094;13.714;2023-06-14T12:02:58;100488.94;;;22.27;46.60
75656;BME280;64252;51.094;13.714;2023-06-14T12:05:25;100488.25;;;22.23;46.53
75656;BME280;64252;51.094;13.714;2023-06-14T12:07:58;100481.91;;;22.28;47.01
75656;BME280;64252;51.094;13.714;2023-06-14T12:10:26;100485.53;;;22.41;47.09
75656;BME280;64252;51.094;13.714;2023-06-14T12:12:56;100488.31;;;22.10;47.75
75656;BME280;64252;51.094;13.714;2023-06-14T12:15:22;100488.63;;;21.78;47.06
75656;BME280;64252;51.094;13.714;2023-06-14T12:17:48;100485.97;;;21.83;47.80
75656;BME280;64252;51.094;13.714;2023-06-14T12:20:14;100496.06;;;22.22;47.67
75656;BME280;64252;51.094;13.714;2023-06-14T12:22:51;100487.38;;;21.66;48.37
75656;BME280;64252;51.094;13.714;2023-06-14T12:25:33;100490.28;;;21.54;48.78
75656;BME280;64252;51.094;13.714;2023-06-14T12:28:05;100490.94;;;21.58;48.69
75656;BME280;64252;51.094;13.714;2023-06-14T12:30:32;100485.09;;;21.11;51.36
75656;BME280;64252;51.094;13.714;2023-06-14T12:32:58;100490.28;;;21.54;49.61
75656;BME280;64252;51.094;13.714;2023-06-14T12:35:24;100481.19;;;21.55;50.25
75656;BME280;64252;51.094;13.714;2023-06-14T12:37:49;100496.16;;;21.50;49.24
75656;BME280;64252;51.094;13.714;2023-06-14T12:40:15;100485.00;;;21.14;50.23
75656;BME280;64252;51.094;13.714;2023-06-14T12:42:41;100490.13;;;20.81;50.57
75656;BME280;64252;51.094;13.714;2023-06-14T12:45:08;100493.22;;;20.33;51.67
75656;BME280;64252;51.094;13.714;2023-06-14T12:47:34;100498.78;;;20.24;52.98
75656;BME280;64252;51.094;13.714;2023-06-14T12:50:01;100492.00;;;20.01;53.00
75656;BME280;64252;51.094;13.714;2023-06-14T12:52:26;100476.09;;;20.29;52.99
75656;BME280;64252;51.094;13.714;2023-06-14T12:54:52;100475.03;;;20.52;52.63
75656;BME280;64252;51.094;13.714;2023-06-14T12:57:17;100476.69;;;20.66;51.62